createdAt,value
2022-08-25T00:03:50.273Z,99183.19
2022-08-25T00:08:59.685Z,99172.03
2022-08-25T00:14:11.576Z,99179.50
2022-08-25T00:19:21.597Z,99181.63
2022-08-25T00:24:27.738Z,99176.25
2022-08-25T00:29:38.182Z,99175.16
2022-08-25T00:34:43.177Z,99171.97
2022-08-25T00:39:48.361Z,99175.78
2022-08-25T00:44:56.434Z,99169.75
2022-08-25T00:50:04.273Z,99165.22
2022-08-25T00:55:14.652Z,99167.53
2022-08-25T01:00:30.411Z,99166.84
2022-08-25T01:05:35.950Z,99164.41
2022-08-25T01:10:44.320Z,99162.38
2022-08-25T01:15:55.942Z,99162.16
2022-08-25T01:21:03.552Z,99160.59
2022-08-25T01:26:12.743Z,99154.66
2022-08-25T01:31:24.053Z,99151.63
2022-08-25T01:36:33.323Z,99150.94
2022-08-25T01:41:52.012Z,99160.94
2022-08-25T01:46:57.458Z,99151.75
2022-08-25T01:52:10.563Z,99153.56
2022-08-25T01:57:15.829Z,99151.84
2022-08-25T02:02:20.738Z,99152.41
2022-08-25T02:07:28.338Z,99157.03
2022-08-25T02:12:33.415Z,99149.16
2022-08-25T02:17:40.418Z,99146.31
2022-08-25T02:22:53.110Z,99142.69
2022-08-25T02:28:02.663Z,99145.38
2022-08-25T02:33:07.544Z,99152.66
2022-08-25T02:38:14.984Z,99142.00
2022-08-25T02:43:19.873Z,99135.50
2022-08-25T02:48:24.963Z,99149.63
2022-08-25T02:53:33.177Z,99142.69
2022-08-25T02:58:39.360Z,99141.91
2022-08-25T03:03:47.115Z,99141.56
2022-08-25T03:08:55.631Z,99136.84
2022-08-25T03:14:00.723Z,99133.69
2022-08-25T03:19:06.002Z,99137.53
2022-08-25T03:24:13.656Z,99127.66
2022-08-25T03:29:19.062Z,99128.22
2022-08-25T03:34:25.754Z,99122.06
2022-08-25T03:39:33.716Z,99117.56
2022-08-25T03:44:38.698Z,99121.09
2022-08-25T03:49:43.878Z,99118.06
2022-08-25T03:54:51.601Z,99109.47
2022-08-25T03:59:56.702Z,99111.44
2022-08-25T04:05:01.761Z,99122.28
2022-08-25T04:10:11.234Z,99111.94
2022-08-25T04:15:16.224Z,99111.38
2022-08-25T04:20:21.527Z,99122.38
2022-08-25T04:25:31.500Z,99119.34
2022-08-25T04:30:36.355Z,99106.50
2022-08-25T04:35:43.830Z,99102.59
2022-08-25T04:40:58.810Z,99110.09
2022-08-25T04:46:12.565Z,99114.91
2022-08-25T04:51:20.392Z,99108.56
2022-08-25T04:56:28.261Z,99114.47
2022-08-25T05:01:33.604Z,99111.31
2022-08-25T05:06:40.971Z,99106.47
2022-08-25T05:11:48.635Z,99118.22
2022-08-25T05:16:53.559Z,99118.09
2022-08-25T05:21:58.558Z,99123.28
2022-08-25T05:27:10.886Z,99110.78
2022-08-25T05:32:15.906Z,99129.84
2022-08-25T05:37:23.008Z,99126.50
2022-08-25T05:42:31.092Z,99122.50
2022-08-25T05:47:36.918Z,99126.63
2022-08-25T05:52:43.442Z,99123.34
2022-08-25T05:57:50.990Z,99122.25
2022-08-25T06:02:56.395Z,99115.31
2022-08-25T06:08:01.741Z,99112.81
2022-08-25T06:13:29.030Z,99113.13
2022-08-25T06:18:37.686Z,99104.25
2022-08-25T06:23:43.275Z,99112.38
2022-08-25T06:28:50.917Z,99102.72
2022-08-25T06:33:56.472Z,99113.66
2022-08-25T06:39:01.566Z,99110.25
2022-08-25T06:44:11.571Z,99115.34
2022-08-25T06:49:16.921Z,99101.22
2022-08-25T06:54:21.907Z,99111.19
2022-08-25T06:59:32.158Z,99098.97
2022-08-25T07:04:38.787Z,99103.56
2022-08-25T07:09:43.956Z,99105.25
2022-08-25T07:15:10.199Z,99099.06
2022-08-25T07:20:16.927Z,99107.69
2022-08-25T07:25:24.367Z,99100.06
2022-08-25T07:30:32.069Z,99098.34
2022-08-25T07:35:38.002Z,99098.34
2022-08-25T07:40:43.276Z,99093.41
2022-08-25T07:45:53.408Z,99098.47
2022-08-25T07:50:58.351Z,99091.22
2022-08-25T08:01:15.928Z,99079.94
2022-08-25T08:06:23.552Z,99089.84
2022-08-25T08:11:31.839Z,99087.13
2022-08-25T08:16:39.796Z,99088.31
2022-08-25T08:21:46.798Z,99087.78
2022-08-25T08:26:58.696Z,99098.44
2022-08-25T08:32:09.124Z,99085.84
2022-08-25T08:37:14.001Z,99074.41
2022-08-25T08:42:35.659Z,99083.59
2022-08-25T08:47:53.164Z,99076.28
2022-08-25T08:53:04.158Z,99066.38
2022-08-25T08:58:14.924Z,99063.88
2022-08-25T09:03:32.498Z,99063.66
2022-08-25T09:08:38.349Z,99059.44
2022-08-25T09:14:07.181Z,99056.53
2022-08-25T09:19:28.955Z,99049.84
2022-08-25T09:24:52.704Z,99047.91
2022-08-25T09:30:07.484Z,99042.28
2022-08-25T09:35:22.614Z,99041.34
2022-08-25T09:40:27.843Z,99027.75
2022-08-25T09:45:43.622Z,99021.94
2022-08-25T09:50:51.910Z,99029.41
2022-08-25T09:56:04.865Z,99029.38
2022-08-25T10:01:17.490Z,99022.28
2022-08-25T10:06:27.306Z,99011.78
2022-08-25T10:11:49.077Z,99010.47
2022-08-25T10:16:55.361Z,99001.13
2022-08-25T10:22:10.909Z,98995.91
2022-08-25T10:27:28.739Z,98987.03
2022-08-25T10:32:47.505Z,98988.47
2022-08-25T10:38:11.725Z,98973.59
2022-08-25T10:43:33.869Z,98968.44
2022-08-25T10:48:53.774Z,98966.63
2022-08-25T10:54:10.016Z,98964.59
2022-08-25T10:59:36.199Z,98953.09
2022-08-25T11:04:47.154Z,98950.13
2022-08-25T11:10:00.686Z,98945.69
2022-08-25T11:15:12.158Z,98943.22
2022-08-25T11:20:26.819Z,98940.41
2022-08-25T11:25:38.445Z,98933.88
2022-08-25T11:30:44.708Z,98924.16
2022-08-25T11:35:55.535Z,98913.50
2022-08-25T11:41:13.103Z,98913.44
2022-08-25T12:20:02.076Z,98882.97
2022-08-25T12:25:11.775Z,98879.75
2022-08-25T12:30:23.905Z,98875.91
2022-08-25T12:35:35.920Z,98864.72
2022-08-25T12:40:56.463Z,98863.75
2022-08-25T12:46:31.972Z,98858.22
2022-08-25T12:51:59.263Z,98859.47
2022-08-25T12:57:09.554Z,98858.41
2022-08-25T13:02:56.647Z,98859.84
2022-08-25T13:08:26.917Z,98856.97
2022-08-25T13:13:48.198Z,98841.19
2022-08-25T13:18:53.627Z,98841.44
2022-08-25T13:24:05.751Z,98833.28
2022-08-25T13:29:18.408Z,98833.91
2022-08-25T13:34:34.251Z,98826.47
2022-08-25T13:39:56.542Z,98810.97
2022-08-25T13:45:03.478Z,98816.31
2022-08-25T13:50:35.457Z,98813.63
2022-08-25T13:55:53.269Z,98807.00
2022-08-25T14:01:22.787Z,98801.72
2022-08-25T14:06:37.433Z,98804.53
2022-08-25T14:11:50.224Z,98802.91
2022-08-25T14:17:16.448Z,98809.00
2022-08-25T14:22:27.228Z,98800.81
2022-08-25T14:27:38.962Z,98795.84
2022-08-25T14:32:56.346Z,98793.91
2022-08-25T14:38:01.589Z,98787.09
2022-08-25T14:43:10.851Z,98787.34
2022-08-25T14:48:24.345Z,98766.34
2022-08-25T14:53:30.007Z,98778.47
2022-08-25T14:58:48.527Z,98763.03
2022-08-25T15:04:04.147Z,98760.41
2022-08-25T15:09:12.167Z,98766.13
2022-08-25T15:14:28.881Z,98768.09
2022-08-25T15:19:38.870Z,98755.34
2022-08-25T15:24:43.844Z,98763.13
2022-08-25T15:29:51.930Z,98760.13
2022-08-25T15:34:57.770Z,98752.97
2022-08-25T15:40:02.730Z,98750.13
2022-08-25T15:45:15.234Z,98753.72
2022-08-25T15:50:25.999Z,98749.31
2022-08-25T15:55:33.233Z,98745.19
2022-08-25T16:00:43.702Z,98743.59
2022-08-25T16:05:57.170Z,98727.09
2022-08-25T16:11:02.710Z,98738.78
2022-08-25T16:16:10.516Z,98734.56
2022-08-25T16:21:17.331Z,98727.75
2022-08-25T16:26:22.264Z,98726.03
2022-08-25T16:31:32.617Z,98726.53
2022-08-25T16:36:38.156Z,98734.31
2022-08-25T16:41:43.424Z,98720.63
2022-08-25T16:46:54.313Z,98724.19
2022-08-25T16:51:59.540Z,98729.69
2022-08-25T16:57:05.912Z,98719.03
2022-08-25T17:02:13.521Z,98721.41
2022-08-25T17:07:23.696Z,98721.41
2022-08-25T17:12:29.943Z,98721.09
2022-08-25T17:17:37.517Z,98721.94
2022-08-25T17:22:43.391Z,98737.69
2022-08-25T17:27:48.470Z,98729.25
2022-08-25T17:32:56.334Z,98730.50
2022-08-25T17:38:01.325Z,98740.25
2022-08-25T17:43:09.135Z,98729.47
2022-08-25T17:48:18.128Z,98740.38
2022-08-25T17:53:24.583Z,98752.00
2022-08-25T17:58:30.650Z,98754.78
2022-08-25T18:03:38.259Z,98751.69
2022-08-25T18:08:43.627Z,98764.09
2022-08-25T18:13:50.563Z,98761.00
2022-08-25T18:18:58.984Z,98756.34
2022-08-25T18:24:03.899Z,98774.59
2022-08-25T18:29:12.177Z,98764.91
2022-08-25T18:34:20.241Z,98759.09
2022-08-25T18:39:37.624Z,98765.66
2022-08-25T18:44:46.793Z,98763.38
2022-08-25T18:49:54.911Z,98768.78
2022-08-25T18:55:00.388Z,98766.47
2022-08-25T19:00:08.844Z,98767.63
2022-08-25T19:05:17.531Z,98765.25
2022-08-25T19:10:24.087Z,98772.25
2022-08-25T19:15:30.605Z,98771.47
2022-08-25T19:20:41.356Z,98768.31
2022-08-25T19:25:47.350Z,98774.97
2022-08-25T19:30:52.560Z,98768.72
2022-08-25T19:36:00.903Z,98765.63
2022-08-25T19:41:10.710Z,98764.81
2022-08-25T19:46:20.121Z,98769.06
2022-08-25T19:51:27.780Z,98767.50
2022-08-25T19:56:36.254Z,98771.78
2022-08-25T20:01:42.992Z,98759.31
2022-08-25T20:06:50.648Z,98774.84
2022-08-25T20:11:56.439Z,98763.13
2022-08-25T20:17:03.406Z,98759.31
2022-08-25T20:22:24.960Z,98754.63
2022-08-25T20:27:35.837Z,98763.09
2022-08-25T20:32:42.555Z,98756.00
2022-08-25T20:37:54.049Z,98766.13
2022-08-25T20:43:03.132Z,98757.13
2022-08-25T20:48:09.050Z,98752.88
2022-08-25T20:53:18.511Z,98751.34
2022-08-25T20:58:23.468Z,98754.53
2022-08-25T21:03:31.808Z,98755.34
2022-08-25T21:08:46.587Z,98754.53
2022-08-25T21:13:51.977Z,98753.34
2022-08-25T21:18:57.118Z,98753.47
2022-08-25T21:24:09.690Z,98757.81
2022-08-25T21:29:15.065Z,98749.84
2022-08-25T21:34:21.496Z,98747.88
2022-08-25T21:39:32.468Z,98750.00
2022-08-25T21:44:37.365Z,98747.44
2022-08-25T21:49:42.561Z,98747.69
2022-08-25T21:54:50.111Z,98751.88
2022-08-25T21:59:55.023Z,98741.00
2022-08-25T22:05:00.167Z,98745.19
2022-08-25T22:10:16.412Z,98739.34
2022-08-25T22:15:23.427Z,98732.63
2022-08-25T22:20:28.834Z,98727.66
2022-08-25T22:25:36.327Z,98725.47
2022-08-25T22:30:42.933Z,98719.22
2022-08-25T22:35:48.063Z,98716.44
2022-08-25T22:40:55.885Z,98703.91
2022-08-25T22:46:05.219Z,98710.53
2022-08-25T22:51:13.978Z,98701.94
2022-08-25T22:56:29.887Z,98703.69
2022-08-25T23:01:37.701Z,98703.63
2022-08-25T23:06:44.731Z,98694.66
2022-08-25T23:11:52.444Z,98697.34
2022-08-25T23:16:58.553Z,98693.78
2022-08-25T23:22:16.323Z,98700.50
2022-08-25T23:27:24.571Z,98697.91
2022-08-25T23:32:29.678Z,98685.84
2022-08-25T23:37:35.343Z,98677.75
2022-08-25T23:42:43.059Z,98677.50
2022-08-25T23:47:52.594Z,98666.38
2022-08-25T23:52:57.625Z,98664.66
2022-08-25T23:58:06.164Z,98658.84
